ESCF

Malmen Air Base Airport

Linköping, Sweden
METAR ESCF 170550Z AUTO 27002KT 0350 0200// R01/0500V0750N R19/P2000N FZFG NCD M08/M09 Q1012
Observed Flight Rules
Dec-17 @ 05:50 UTC (27 minutes ago) Instrument Flight Rules
Wind Visibility Clouds Conditions
270° at 2 knots 354 meters
  • Clear skies
  • Freezing
  • Fog
Temperatures Readings
Current -8°C / 18°F
Dewpoint -9°C / 16°F
Humidity 93%
Altimeter 29.88" Hg
Pressure 1012 hPa
Elevation 117
METAR ESCF 170550Z AUTO 27002KT 0350 0200// R01/0500V0750N R19/P2000N FZFG NCD M08/M09 Q1012
Observed Flight Rules
Dec-17 @ 05:50 UTC
(27 minutes ago)
LIFR
Wind Visibility
270° at 2 knots 354 meters
Clouds
  • Clear skies
Conditions
  • Freezing
  • Fog
Temperature Dewpoint
-8°C / 18°F -9°C / 16°F
Humidity Altimeter Pressure
93% 29.88" Hg 1012 hPa